sensor_id;sensor_type;location;lat;lon;timestamp;P1;durP1;ratioP1;P2;durP2;ratioP2
72891;SDS011;61032;50.782;6.818;2023-03-03T00:00:37;18.77;;;8.88;;
72891;SDS011;61032;50.782;6.818;2023-03-03T00:01:37;23.58;;;10.38;;
72891;SDS011;61032;50.782;6.818;2023-03-03T00:02:38;20.98;;;9.32;;
72891;SDS011;61032;50.782;6.818;2023-03-03T00:03:38;19.33;;;10.18;;
72891;SDS011;61032;50.782;6.818;2023-03-03T00:04:39;20.63;;;10.50;;
72891;SDS011;61032;50.782;6.818;2023-03-03T00:05:39;18.42;;;10.15;;
72891;SDS011;61032;50.782;6.818;2023-03-03T00:06:39;18.75;;;9.93;;
72891;SDS011;61032;50.782;6.818;2023-03-03T00:07:42;18.20;;;9.77;;
72891;SDS011;61032;50.782;6.818;2023-03-03T00:08:43;18.98;;;10.27;;
72891;SDS011;61032;50.782;6.818;2023-03-03T00:09:43;20.50;;;10.05;;
72891;SDS011;61032;50.782;6.818;2023-03-03T00:10:44;17.38;;;10.40;;
72891;SDS011;61032;50.782;6.818;2023-03-03T00:11:45;20.75;;;9.95;;
72891;SDS011;61032;50.782;6.818;2023-03-03T00:12:49;18.55;;;9.82;;
72891;SDS011;61032;50.782;6.818;2023-03-03T00:13:51;17.95;;;9.80;;
72891;SDS011;61032;50.782;6.818;2023-03-03T00:14:52;15.93;;;9.00;;
72891;SDS011;61032;50.782;6.818;2023-03-03T00:15:53;18.25;;;9.80;;
72891;SDS011;61032;50.782;6.818;2023-03-03T00:17:22;17.83;;;9.02;;
72891;SDS011;61032;50.782;6.818;2023-03-03T00:18:27;16.90;;;10.35;;
72891;SDS011;61032;50.782;6.818;2023-03-03T00:19:30;21.25;;;10.00;;
72891;SDS011;61032;50.782;6.818;2023-03-03T00:20:38;17.63;;;8.93;;
72891;SDS011;61032;50.782;6.818;2023-03-03T00:21:39;19.35;;;9.50;;
72891;SDS011;61032;50.782;6.818;2023-03-03T00:22:41;18.13;;;9.23;;
72891;SDS011;61032;50.782;6.818;2023-03-03T00:23:42;19.98;;;9.77;;
72891;SDS011;61032;50.782;6.818;2023-03-03T00:24:42;19.85;;;9.57;;
72891;SDS011;61032;50.782;6.818;2023-03-03T00:25:43;18.90;;;9.43;;
72891;SDS011;61032;50.782;6.818;2023-03-03T00:27:51;18.00;;;8.73;;
72891;SDS011;61032;50.782;6.818;2023-03-03T00:28:52;15.65;;;9.52;;
72891;SDS011;61032;50.782;6.818;2023-03-03T00:29:54;17.60;;;8.45;;
72891;SDS011;61032;50.782;6.818;2023-03-03T00:31:00;18.55;;;8.55;;
72891;SDS011;61032;50.782;6.818;2023-03-03T00:32:09;15.32;;;8.60;;
72891;SDS011;61032;50.782;6.818;2023-03-03T00:33:35;19.35;;;8.52;;
72891;SDS011;61032;50.782;6.818;2023-03-03T00:34:44;17.73;;;8.60;;
72891;SDS011;61032;50.782;6.818;2023-03-03T00:35:45;17.27;;;8.60;;
72891;SDS011;61032;50.782;6.818;2023-03-03T00:36:51;18.23;;;8.95;;
72891;SDS011;61032;50.782;6.818;2023-03-03T00:37:55;18.27;;;9.05;;
72891;SDS011;61032;50.782;6.818;2023-03-03T00:38:59;19.10;;;8.20;;
72891;SDS011;61032;50.782;6.818;2023-03-03T00:40:26;16.58;;;9.43;;
72891;SDS011;61032;50.782;6.818;2023-03-03T00:41:33;18.08;;;8.93;;
72891;SDS011;61032;50.782;6.818;2023-03-03T00:42:36;20.27;;;9.80;;
72891;SDS011;61032;50.782;6.818;2023-03-03T00:43:36;15.90;;;8.93;;
72891;SDS011;61032;50.782;6.818;2023-03-03T00:46:56;19.45;;;8.77;;
72891;SDS011;61032;50.782;6.818;2023-03-03T00:48:24;17.67;;;8.88;;
72891;SDS011;61032;50.782;6.818;2023-03-03T00:49:26;18.67;;;9.52;;
72891;SDS011;61032;50.782;6.818;2023-03-03T00:50:28;19.50;;;9.93;;
72891;SDS011;61032;50.782;6.818;2023-03-03T00:51:29;17.30;;;8.45;;
72891;SDS011;61032;50.782;6.818;2023-03-03T00:52:34;21.35;;;10.15;;
72891;SDS011;61032;50.782;6.818;2023-03-03T00:53:36;19.75;;;9.35;;
72891;SDS011;61032;50.782;6.818;2023-03-03T00:54:36;22.77;;;10.52;;
72891;SDS011;61032;50.782;6.818;2023-03-03T00:55:36;17.88;;;9.05;;
72891;SDS011;61032;50.782;6.818;2023-03-03T00:56:36;23.45;;;11.07;;
72891;SDS011;61032;50.782;6.818;2023-03-03T00:57:38;19.25;;;9.88;;
72891;SDS011;61032;50.782;6.818;2023-03-03T00:58:38;18.42;;;10.07;;
72891;SDS011;61032;50.782;6.818;2023-03-03T00:59:38;16.65;;;9.15;;
72891;SDS011;61032;50.782;6.818;2023-03-03T01:00:39;17.40;;;8.55;;
72891;SDS011;61032;50.782;6.818;2023-03-03T01:01:40;17.98;;;9.35;;
72891;SDS011;61032;50.782;6.818;2023-03-03T01:02:40;18.92;;;8.85;;
72891;SDS011;61032;50.782;6.818;2023-03-03T01:03:41;17.58;;;8.90;;
72891;SDS011;61032;50.782;6.818;2023-03-03T01:04:41;17.38;;;9.60;;
72891;SDS011;61032;50.782;6.818;2023-03-03T01:05:47;18.83;;;10.20;;
72891;SDS011;61032;50.782;6.818;2023-03-03T01:06:48;18.45;;;9.50;;
72891;SDS011;61032;50.782;6.818;2023-03-03T01:07:48;17.67;;;9.40;;
72891;SDS011;61032;50.782;6.818;2023-03-03T01:08:49;19.02;;;9.73;;
72891;SDS011;61032;50.782;6.818;2023-03-03T01:09:49;17.13;;;9.07;;
72891;SDS011;61032;50.782;6.818;2023-03-03T01:10:50;17.38;;;8.75;;
72891;SDS011;61032;50.782;6.818;2023-03-03T01:11:53;17.65;;;9.15;;
72891;SDS011;61032;50.782;6.818;2023-03-03T01:12:54;18.75;;;9.77;;
72891;SDS011;61032;50.782;6.818;2023-03-03T01:13:55;19.15;;;9.52;;
72891;SDS011;61032;50.782;6.818;2023-03-03T01:14:55;16.42;;;8.82;;
72891;SDS011;61032;50.782;6.818;2023-03-03T01:15:57;19.92;;;10.38;;
72891;SDS011;61032;50.782;6.818;2023-03-03T01:16:58;21.15;;;11.13;;
72891;SDS011;61032;50.782;6.818;2023-03-03T01:17:58;19.65;;;10.55;;
72891;SDS011;61032;50.782;6.818;2023-03-03T01:18:58;20.25;;;10.23;;
72891;SDS011;61032;50.782;6.818;2023-03-03T01:19:59;21.05;;;10.68;;
72891;SDS011;61032;50.782;6.818;2023-03-03T01:21:00;16.83;;;8.90;;
72891;SDS011;61032;50.782;6.818;2023-03-03T01:22:01;17.17;;;9.40;;
72891;SDS011;61032;50.782;6.818;2023-03-03T01:23:01;18.63;;;8.98;;
72891;SDS011;61032;50.782;6.818;2023-03-03T01:24:02;19.70;;;9.52;;
72891;SDS011;61032;50.782;6.818;2023-03-03T01:25:03;17.95;;;9.73;;
72891;SDS011;61032;50.782;6.818;2023-03-03T01:26:04;21.15;;;11.00;;
72891;SDS011;61032;50.782;6.818;2023-03-03T01:27:04;18.77;;;10.52;;
72891;SDS011;61032;50.782;6.818;2023-03-03T01:28:04;22.05;;;11.05;;
72891;SDS011;61032;50.782;6.818;2023-03-03T01:29:05;22.58;;;11.15;;
72891;SDS011;61032;50.782;6.818;2023-03-03T01:30:06;20.13;;;10.98;;
72891;SDS011;61032;50.782;6.818;2023-03-03T01:31:07;20.45;;;10.52;;
72891;SDS011;61032;50.782;6.818;2023-03-03T01:32:07;23.42;;;10.90;;
72891;SDS011;61032;50.782;6.818;2023-03-03T01:33:07;21.15;;;11.35;;
72891;SDS011;61032;50.782;6.818;2023-03-03T01:34:08;21.73;;;11.23;;
72891;SDS011;61032;50.782;6.818;2023-03-03T01:35:08;20.48;;;10.70;;
72891;SDS011;61032;50.782;6.818;2023-03-03T01:36:09;20.08;;;10.27;;
72891;SDS011;61032;50.782;6.818;2023-03-03T01:37:10;23.15;;;10.15;;
72891;SDS011;61032;50.782;6.818;2023-03-03T01:38:10;16.92;;;9.57;;
72891;SDS011;61032;50.782;6.818;2023-03-03T01:39:10;18.58;;;9.73;;
72891;SDS011;61032;50.782;6.818;2023-03-03T01:40:12;19.00;;;10.27;;
72891;SDS011;61032;50.782;6.818;2023-03-03T01:41:18;19.25;;;9.60;;
72891;SDS011;61032;50.782;6.818;2023-03-03T01:42:19;18.52;;;10.05;;
72891;SDS011;61032;50.782;6.818;2023-03-03T01:43:20;17.33;;;9.35;;
72891;SDS011;61032;50.782;6.818;2023-03-03T01:44:20;20.52;;;9.25;;
72891;SDS011;61032;50.782;6.818;2023-03-03T01:45:28;20.45;;;9.85;;
72891;SDS011;61032;50.782;6.818;2023-03-03T01:46:43;18.23;;;9.57;;
72891;SDS011;61032;50.782;6.818;2023-03-03T01:47:50;19.35;;;9.70;;
72891;SDS011;61032;50.782;6.818;2023-03-03T01:48:57;20.92;;;10.32;;
72891;SDS011;61032;50.782;6.818;2023-03-03T01:50:11;18.42;;;9.10;;
72891;SDS011;61032;50.782;6.818;2023-03-03T01:51:25;21.08;;;10.43;;
72891;SDS011;61032;50.782;6.818;2023-03-03T01:52:44;21.20;;;10.80;;
72891;SDS011;61032;50.782;6.818;2023-03-03T01:53:50;20.77;;;10.57;;
72891;SDS011;61032;50.782;6.818;2023-03-03T01:54:54;26.67;;;11.50;;
72891;SDS011;61032;50.782;6.818;2023-03-03T01:55:59;21.42;;;12.15;;
72891;SDS011;61032;50.782;6.818;2023-03-03T01:57:02;24.98;;;11.65;;
72891;SDS011;61032;50.782;6.818;2023-03-03T01:58:13;23.30;;;11.85;;
72891;SDS011;61032;50.782;6.818;2023-03-03T01:59:20;25.10;;;12.18;;
72891;SDS011;61032;50.782;6.818;2023-03-03T02:00:26;26.85;;;13.00;;
72891;SDS011;61032;50.782;6.818;2023-03-03T02:01:27;25.00;;;12.48;;
72891;SDS011;61032;50.782;6.818;2023-03-03T02:02:29;23.05;;;12.25;;
72891;SDS011;61032;50.782;6.818;2023-03-03T02:03:31;21.40;;;11.07;;
72891;SDS011;61032;50.782;6.818;2023-03-03T02:04:34;23.65;;;10.95;;
72891;SDS011;61032;50.782;6.818;2023-03-03T02:05:34;23.17;;;11.48;;
72891;SDS011;61032;50.782;6.818;2023-03-03T02:06:37;26.25;;;12.82;;
72891;SDS011;61032;50.782;6.818;2023-03-03T02:07:40;29.02;;;13.20;;
72891;SDS011;61032;50.782;6.818;2023-03-03T02:08:42;31.23;;;14.13;;
72891;SDS011;61032;50.782;6.818;2023-03-03T02:09:57;31.15;;;14.30;;
72891;SDS011;61032;50.782;6.818;2023-03-03T02:11:01;25.40;;;13.07;;
72891;SDS011;61032;50.782;6.818;2023-03-03T02:12:07;24.77;;;11.70;;
72891;SDS011;61032;50.782;6.818;2023-03-03T02:13:11;25.42;;;11.07;;
72891;SDS011;61032;50.782;6.818;2023-03-03T02:14:12;20.30;;;10.93;;
72891;SDS011;61032;50.782;6.818;2023-03-03T02:15:29;21.60;;;11.10;;
72891;SDS011;61032;50.782;6.818;2023-03-03T02:16:34;19.75;;;10.15;;
72891;SDS011;61032;50.782;6.818;2023-03-03T02:17:35;25.83;;;11.90;;
72891;SDS011;61032;50.782;6.818;2023-03-03T02:18:35;24.60;;;12.63;;
72891;SDS011;61032;50.782;6.818;2023-03-03T02:19:40;21.17;;;10.60;;
72891;SDS011;61032;50.782;6.818;2023-03-03T02:21:54;24.73;;;13.05;;
72891;SDS011;61032;50.782;6.818;2023-03-03T02:22:57;22.52;;;12.00;;
72891;SDS011;61032;50.782;6.818;2023-03-03T02:25:03;25.02;;;12.60;;
72891;SDS011;61032;50.782;6.818;2023-03-03T02:26:16;26.77;;;12.18;;
72891;SDS011;61032;50.782;6.818;2023-03-03T02:27:21;28.40;;;14.40;;
72891;SDS011;61032;50.782;6.818;2023-03-03T02:28:26;26.90;;;13.20;;
72891;SDS011;61032;50.782;6.818;2023-03-03T02:29:28;24.27;;;12.20;;
72891;SDS011;61032;50.782;6.818;2023-03-03T02:30:28;28.23;;;14.13;;
72891;SDS011;61032;50.782;6.818;2023-03-03T02:31:29;27.55;;;14.40;;
72891;SDS011;61032;50.782;6.818;2023-03-03T02:32:30;32.08;;;14.45;;
72891;SDS011;61032;50.782;6.818;2023-03-03T02:33:30;32.30;;;14.43;;
72891;SDS011;61032;50.782;6.818;2023-03-03T02:34:42;27.88;;;13.40;;
72891;SDS011;61032;50.782;6.818;2023-03-03T02:35:50;28.05;;;13.27;;
72891;SDS011;61032;50.782;6.818;2023-03-03T02:36:51;27.58;;;14.02;;
72891;SDS011;61032;50.782;6.818;2023-03-03T02:37:51;24.00;;;11.73;;
72891;SDS011;61032;50.782;6.818;2023-03-03T02:40:04;22.90;;;11.77;;
72891;SDS011;61032;50.782;6.818;2023-03-03T02:42:22;27.67;;;13.13;;
72891;SDS011;61032;50.782;6.818;2023-03-03T02:43:31;30.83;;;13.60;;
72891;SDS011;61032;50.782;6.818;2023-03-03T02:44:56;29.27;;;14.00;;
72891;SDS011;61032;50.782;6.818;2023-03-03T02:45:56;26.13;;;12.65;;
72891;SDS011;61032;50.782;6.818;2023-03-03T02:46:56;25.92;;;12.93;;
72891;SDS011;61032;50.782;6.818;2023-03-03T02:47:58;29.67;;;13.75;;
72891;SDS011;61032;50.782;6.818;2023-03-03T02:48:58;25.77;;;12.85;;
72891;SDS011;61032;50.782;6.818;2023-03-03T02:49:58;26.98;;;14.50;;
72891;SDS011;61032;50.782;6.818;2023-03-03T02:50:58;30.83;;;13.98;;
72891;SDS011;61032;50.782;6.818;2023-03-03T02:51:59;28.45;;;14.52;;
72891;SDS011;61032;50.782;6.818;2023-03-03T02:53:01;29.42;;;13.95;;
72891;SDS011;61032;50.782;6.818;2023-03-03T02:54:01;27.20;;;13.80;;
72891;SDS011;61032;50.782;6.818;2023-03-03T02:55:02;27.20;;;12.63;;
72891;SDS011;61032;50.782;6.818;2023-03-03T02:56:03;24.40;;;13.43;;
72891;SDS011;61032;50.782;6.818;2023-03-03T02:57:04;25.77;;;13.30;;
72891;SDS011;61032;50.782;6.818;2023-03-03T02:58:04;25.67;;;13.43;;
72891;SDS011;61032;50.782;6.818;2023-03-03T02:59:05;28.52;;;13.80;;
72891;SDS011;61032;50.782;6.818;2023-03-03T03:00:06;29.23;;;14.40;;
72891;SDS011;61032;50.782;6.818;2023-03-03T03:01:07;33.00;;;16.40;;
72891;SDS011;61032;50.782;6.818;2023-03-03T03:02:07;26.98;;;13.68;;
72891;SDS011;61032;50.782;6.818;2023-03-03T03:03:08;28.98;;;14.20;;
72891;SDS011;61032;50.782;6.818;2023-03-03T03:04:09;30.77;;;14.77;;
72891;SDS011;61032;50.782;6.818;2023-03-03T03:05:12;29.27;;;14.45;;
72891;SDS011;61032;50.782;6.818;2023-03-03T03:06:12;30.38;;;14.02;;
72891;SDS011;61032;50.782;6.818;2023-03-03T03:07:13;33.08;;;14.38;;
72891;SDS011;61032;50.782;6.818;2023-03-03T03:08:13;30.92;;;14.60;;
72891;SDS011;61032;50.782;6.818;2023-03-03T03:09:14;32.42;;;15.05;;
72891;SDS011;61032;50.782;6.818;2023-03-03T03:10:15;29.50;;;14.88;;
72891;SDS011;61032;50.782;6.818;2023-03-03T03:11:15;31.27;;;15.55;;
72891;SDS011;61032;50.782;6.818;2023-03-03T03:12:15;31.98;;;15.25;;
72891;SDS011;61032;50.782;6.818;2023-03-03T03:13:18;31.45;;;15.38;;
72891;SDS011;61032;50.782;6.818;2023-03-03T03:14:18;32.40;;;15.60;;
72891;SDS011;61032;50.782;6.818;2023-03-03T03:15:19;30.55;;;14.80;;
72891;SDS011;61032;50.782;6.818;2023-03-03T03:16:19;37.67;;;16.83;;
72891;SDS011;61032;50.782;6.818;2023-03-03T03:17:19;36.15;;;15.35;;
72891;SDS011;61032;50.782;6.818;2023-03-03T03:18:19;31.33;;;14.80;;
72891;SDS011;61032;50.782;6.818;2023-03-03T03:19:20;34.63;;;16.50;;
72891;SDS011;61032;50.782;6.818;2023-03-03T03:20:20;36.13;;;16.27;;
72891;SDS011;61032;50.782;6.818;2023-03-03T03:21:21;34.10;;;16.27;;
72891;SDS011;61032;50.782;6.818;2023-03-03T03:22:21;36.78;;;16.98;;
72891;SDS011;61032;50.782;6.818;2023-03-03T03:23:21;34.80;;;15.32;;
72891;SDS011;61032;50.782;6.818;2023-03-03T03:24:22;36.72;;;15.98;;
72891;SDS011;61032;50.782;6.818;2023-03-03T03:25:22;34.90;;;15.27;;
72891;SDS011;61032;50.782;6.818;2023-03-03T03:26:22;35.35;;;16.77;;
72891;SDS011;61032;50.782;6.818;2023-03-03T03:27:23;35.55;;;16.52;;
72891;SDS011;61032;50.782;6.818;2023-03-03T03:28:23;41.05;;;17.48;;
72891;SDS011;61032;50.782;6.818;2023-03-03T03:29:24;36.35;;;16.38;;
72891;SDS011;61032;50.782;6.818;2023-03-03T03:30:24;37.60;;;16.63;;
72891;SDS011;61032;50.782;6.818;2023-03-03T03:31:25;40.95;;;16.95;;
72891;SDS011;61032;50.782;6.818;2023-03-03T03:32:26;36.08;;;17.13;;
72891;SDS011;61032;50.782;6.818;2023-03-03T03:33:26;37.72;;;17.20;;
72891;SDS011;61032;50.782;6.818;2023-03-03T03:34:29;36.25;;;16.70;;
72891;SDS011;61032;50.782;6.818;2023-03-03T03:35:31;35.35;;;16.75;;
72891;SDS011;61032;50.782;6.818;2023-03-03T03:36:32;37.55;;;16.88;;
72891;SDS011;61032;50.782;6.818;2023-03-03T03:37:32;38.38;;;16.83;;
72891;SDS011;61032;50.782;6.818;2023-03-03T03:38:33;38.97;;;17.70;;
72891;SDS011;61032;50.782;6.818;2023-03-03T03:39:35;38.17;;;16.95;;
72891;SDS011;61032;50.782;6.818;2023-03-03T03:40:36;36.15;;;17.05;;
72891;SDS011;61032;50.782;6.818;2023-03-03T03:41:37;34.05;;;16.73;;
72891;SDS011;61032;50.782;6.818;2023-03-03T03:42:37;36.20;;;17.77;;
72891;SDS011;61032;50.782;6.818;2023-03-03T03:43:38;41.70;;;17.63;;
72891;SDS011;61032;50.782;6.818;2023-03-03T03:44:38;36.58;;;17.45;;
72891;SDS011;61032;50.782;6.818;2023-03-03T03:45:41;34.70;;;16.80;;
72891;SDS011;61032;50.782;6.818;2023-03-03T03:46:42;41.67;;;17.67;;
72891;SDS011;61032;50.782;6.818;2023-03-03T03:47:42;35.63;;;16.88;;
72891;SDS011;61032;50.782;6.818;2023-03-03T03:48:42;39.63;;;16.83;;
72891;SDS011;61032;50.782;6.818;2023-03-03T03:49:42;36.85;;;16.85;;
72891;SDS011;61032;50.782;6.818;2023-03-03T03:50:43;36.83;;;17.30;;
72891;SDS011;61032;50.782;6.818;2023-03-03T03:51:43;40.08;;;18.10;;
72891;SDS011;61032;50.782;6.818;2023-03-03T03:52:43;42.42;;;19.25;;
72891;SDS011;61032;50.782;6.818;2023-03-03T03:53:44;37.97;;;17.63;;
72891;SDS011;61032;50.782;6.818;2023-03-03T03:54:44;38.15;;;17.80;;
72891;SDS011;61032;50.782;6.818;2023-03-03T03:55:45;36.33;;;16.40;;
72891;SDS011;61032;50.782;6.818;2023-03-03T03:56:45;38.47;;;17.10;;
72891;SDS011;61032;50.782;6.818;2023-03-03T03:57:46;35.72;;;17.05;;
72891;SDS011;61032;50.782;6.818;2023-03-03T03:58:46;35.22;;;17.58;;
72891;SDS011;61032;50.782;6.818;2023-03-03T03:59:48;37.58;;;17.25;;
72891;SDS011;61032;50.782;6.818;2023-03-03T04:00:49;35.05;;;16.10;;
72891;SDS011;61032;50.782;6.818;2023-03-03T04:01:49;38.05;;;17.58;;
72891;SDS011;61032;50.782;6.818;2023-03-03T04:02:50;36.08;;;16.42;;
72891;SDS011;61032;50.782;6.818;2023-03-03T04:03:51;37.08;;;16.05;;
72891;SDS011;61032;50.782;6.818;2023-03-03T04:04:51;38.35;;;17.33;;
72891;SDS011;61032;50.782;6.818;2023-03-03T04:05:52;38.95;;;16.77;;
72891;SDS011;61032;50.782;6.818;2023-03-03T04:06:54;36.92;;;17.05;;
72891;SDS011;61032;50.782;6.818;2023-03-03T04:07:54;37.88;;;17.20;;
72891;SDS011;61032;50.782;6.818;2023-03-03T04:08:54;36.35;;;17.20;;
72891;SDS011;61032;50.782;6.818;2023-03-03T04:09:55;39.58;;;16.60;;
72891;SDS011;61032;50.782;6.818;2023-03-03T04:10:55;42.88;;;17.38;;
72891;SDS011;61032;50.782;6.818;2023-03-03T04:11:55;42.05;;;16.85;;
72891;SDS011;61032;50.782;6.818;2023-03-03T04:12:55;40.78;;;17.67;;
72891;SDS011;61032;50.782;6.818;2023-03-03T04:13:56;40.03;;;16.75;;
72891;SDS011;61032;50.782;6.818;2023-03-03T04:14:56;41.88;;;17.08;;
72891;SDS011;61032;50.782;6.818;2023-03-03T04:15:57;39.20;;;18.13;;
72891;SDS011;61032;50.782;6.818;2023-03-03T04:16:58;38.03;;;16.90;;
72891;SDS011;61032;50.782;6.818;2023-03-03T04:17:58;36.45;;;17.17;;
72891;SDS011;61032;50.782;6.818;2023-03-03T04:18:58;38.92;;;16.38;;
72891;SDS011;61032;50.782;6.818;2023-03-03T04:19:59;41.55;;;16.25;;
72891;SDS011;61032;50.782;6.818;2023-03-03T04:20:59;36.42;;;16.00;;
72891;SDS011;61032;50.782;6.818;2023-03-03T04:21:59;39.55;;;16.58;;
72891;SDS011;61032;50.782;6.818;2023-03-03T04:23:00;43.75;;;17.38;;
72891;SDS011;61032;50.782;6.818;2023-03-03T04:24:00;39.38;;;17.50;;
72891;SDS011;61032;50.782;6.818;2023-03-03T04:25:04;42.38;;;17.80;;
72891;SDS011;61032;50.782;6.818;2023-03-03T04:26:05;40.63;;;16.98;;
72891;SDS011;61032;50.782;6.818;2023-03-03T04:27:06;39.53;;;17.13;;
72891;SDS011;61032;50.782;6.818;2023-03-03T04:28:08;42.33;;;17.20;;
72891;SDS011;61032;50.782;6.818;2023-03-03T04:29:09;40.10;;;17.75;;
72891;SDS011;61032;50.782;6.818;2023-03-03T04:30:10;42.72;;;17.98;;
72891;SDS011;61032;50.782;6.818;2023-03-03T04:32:12;41.15;;;15.20;;
72891;SDS011;61032;50.782;6.818;2023-03-03T04:33:13;46.83;;;18.70;;
72891;SDS011;61032;50.782;6.818;2023-03-03T04:34:13;44.33;;;18.02;;
72891;SDS011;61032;50.782;6.818;2023-03-03T04:35:13;45.67;;;19.48;;
72891;SDS011;61032;50.782;6.818;2023-03-03T04:36:13;43.97;;;18.35;;
72891;SDS011;61032;50.782;6.818;2023-03-03T04:37:14;39.75;;;18.83;;
72891;SDS011;61032;50.782;6.818;2023-03-03T04:38:14;43.42;;;17.77;;
72891;SDS011;61032;50.782;6.818;2023-03-03T04:39:14;42.35;;;18.95;;
72891;SDS011;61032;50.782;6.818;2023-03-03T04:40:15;39.40;;;17.23;;
72891;SDS011;61032;50.782;6.818;2023-03-03T04:42:17;36.55;;;16.42;;
72891;SDS011;61032;50.782;6.818;2023-03-03T04:43:17;36.58;;;17.08;;
72891;SDS011;61032;50.782;6.818;2023-03-03T04:44:18;45.83;;;18.40;;
72891;SDS011;61032;50.782;6.818;2023-03-03T04:45:18;37.88;;;16.63;;
72891;SDS011;61032;50.782;6.818;2023-03-03T04:46:19;37.50;;;17.23;;
72891;SDS011;61032;50.782;6.818;2023-03-03T04:47:19;44.25;;;17.52;;
72891;SDS011;61032;50.782;6.818;2023-03-03T04:48:19;39.88;;;16.80;;
72891;SDS011;61032;50.782;6.818;2023-03-03T04:49:19;40.33;;;17.58;;
72891;SDS011;61032;50.782;6.818;2023-03-03T04:50:20;43.70;;;17.52;;
72891;SDS011;61032;50.782;6.818;2023-03-03T04:51:20;39.72;;;18.13;;
72891;SDS011;61032;50.782;6.818;2023-03-03T04:52:20;41.38;;;18.67;;
72891;SDS011;61032;50.782;6.818;2023-03-03T04:53:21;39.28;;;16.77;;
72891;SDS011;61032;50.782;6.818;2023-03-03T04:54:21;38.75;;;17.35;;
72891;SDS011;61032;50.782;6.818;2023-03-03T04:55:21;36.78;;;17.48;;
72891;SDS011;61032;50.782;6.818;2023-03-03T04:56:22;41.95;;;18.10;;
72891;SDS011;61032;50.782;6.818;2023-03-03T04:57:22;38.03;;;17.33;;
72891;SDS011;61032;50.782;6.818;2023-03-03T04:58:22;37.92;;;16.92;;
72891;SDS011;61032;50.782;6.818;2023-03-03T04:59:23;39.42;;;17.27;;
72891;SDS011;61032;50.782;6.818;2023-03-03T05:00:23;42.22;;;18.50;;
72891;SDS011;61032;50.782;6.818;2023-03-03T05:01:23;36.75;;;16.55;;
72891;SDS011;61032;50.782;6.818;2023-03-03T05:02:24;40.65;;;17.65;;
72891;SDS011;61032;50.782;6.818;2023-03-03T05:03:24;39.83;;;15.63;;
72891;SDS011;61032;50.782;6.818;2023-03-03T05:04:26;40.45;;;17.38;;
72891;SDS011;61032;50.782;6.818;2023-03-03T05:05:26;39.83;;;18.30;;
72891;SDS011;61032;50.782;6.818;2023-03-03T05:06:26;44.30;;;18.95;;
72891;SDS011;61032;50.782;6.818;2023-03-03T05:07:26;36.85;;;17.48;;
72891;SDS011;61032;50.782;6.818;2023-03-03T05:08:27;36.55;;;17.08;;
72891;SDS011;61032;50.782;6.818;2023-03-03T05:09:27;39.45;;;17.45;;
72891;SDS011;61032;50.782;6.818;2023-03-03T05:10:27;40.33;;;17.45;;
72891;SDS011;61032;50.782;6.818;2023-03-03T05:11:28;42.67;;;19.50;;
72891;SDS011;61032;50.782;6.818;2023-03-03T05:12:29;38.53;;;19.02;;
72891;SDS011;61032;50.782;6.818;2023-03-03T05:13:29;41.00;;;17.13;;
72891;SDS011;61032;50.782;6.818;2023-03-03T05:14:30;37.95;;;17.13;;
72891;SDS011;61032;50.782;6.818;2023-03-03T05:15:31;37.75;;;16.42;;
72891;SDS011;61032;50.782;6.818;2023-03-03T05:16:31;37.97;;;16.27;;
72891;SDS011;61032;50.782;6.818;2023-03-03T05:17:31;36.95;;;17.75;;
72891;SDS011;61032;50.782;6.818;2023-03-03T05:18:32;35.67;;;16.63;;
72891;SDS011;61032;50.782;6.818;2023-03-03T05:19:32;35.80;;;16.98;;
72891;SDS011;61032;50.782;6.818;2023-03-03T05:20:33;35.78;;;16.40;;
72891;SDS011;61032;50.782;6.818;2023-03-03T05:21:34;37.95;;;16.73;;
72891;SDS011;61032;50.782;6.818;2023-03-03T05:22:34;37.28;;;17.52;;
72891;SDS011;61032;50.782;6.818;2023-03-03T05:23:34;38.65;;;15.90;;
72891;SDS011;61032;50.782;6.818;2023-03-03T05:24:35;43.28;;;17.90;;
72891;SDS011;61032;50.782;6.818;2023-03-03T05:25:35;44.75;;;17.92;;
72891;SDS011;61032;50.782;6.818;2023-03-03T05:26:35;38.58;;;16.42;;
72891;SDS011;61032;50.782;6.818;2023-03-03T05:27:36;41.55;;;17.40;;
72891;SDS011;61032;50.782;6.818;2023-03-03T05:28:36;42.00;;;18.48;;
72891;SDS011;61032;50.782;6.818;2023-03-03T05:29:36;41.97;;;16.95;;
72891;SDS011;61032;50.782;6.818;2023-03-03T05:30:37;40.40;;;18.27;;
72891;SDS011;61032;50.782;6.818;2023-03-03T05:31:37;43.00;;;18.40;;
72891;SDS011;61032;50.782;6.818;2023-03-03T05:32:37;45.85;;;19.23;;
72891;SDS011;61032;50.782;6.818;2023-03-03T05:33:38;45.78;;;20.42;;
72891;SDS011;61032;50.782;6.818;2023-03-03T05:34:38;43.65;;;19.02;;
72891;SDS011;61032;50.782;6.818;2023-03-03T05:35:39;41.78;;;19.00;;
72891;SDS011;61032;50.782;6.818;2023-03-03T05:36:39;45.58;;;20.13;;
72891;SDS011;61032;50.782;6.818;2023-03-03T05:37:40;41.13;;;19.17;;
72891;SDS011;61032;50.782;6.818;2023-03-03T05:38:45;43.58;;;18.80;;
72891;SDS011;61032;50.782;6.818;2023-03-03T05:39:46;45.17;;;18.60;;
72891;SDS011;61032;50.782;6.818;2023-03-03T05:40:46;44.83;;;19.58;;
72891;SDS011;61032;50.782;6.818;2023-03-03T05:41:46;44.03;;;17.80;;
72891;SDS011;61032;50.782;6.818;2023-03-03T05:42:47;43.67;;;18.80;;
72891;SDS011;61032;50.782;6.818;2023-03-03T05:43:47;43.33;;;17.48;;
72891;SDS011;61032;50.782;6.818;2023-03-03T05:44:47;44.20;;;19.58;;
72891;SDS011;61032;50.782;6.818;2023-03-03T05:45:53;47.35;;;18.00;;
72891;SDS011;61032;50.782;6.818;2023-03-03T05:46:54;43.85;;;18.05;;
72891;SDS011;61032;50.782;6.818;2023-03-03T05:47:56;44.58;;;18.77;;
72891;SDS011;61032;50.782;6.818;2023-03-03T05:48:56;43.65;;;19.00;;
72891;SDS011;61032;50.782;6.818;2023-03-03T05:49:57;44.85;;;20.52;;
72891;SDS011;61032;50.782;6.818;2023-03-03T05:50:57;42.67;;;18.05;;
72891;SDS011;61032;50.782;6.818;2023-03-03T05:51:58;46.30;;;19.35;;
72891;SDS011;61032;50.782;6.818;2023-03-03T05:52:59;46.65;;;18.60;;
72891;SDS011;61032;50.782;6.818;2023-03-03T05:53:59;41.90;;;19.60;;
72891;SDS011;61032;50.782;6.818;2023-03-03T05:55:00;44.72;;;18.98;;
72891;SDS011;61032;50.782;6.818;2023-03-03T05:56:00;39.97;;;18.00;;
72891;SDS011;61032;50.782;6.818;2023-03-03T05:57:01;44.50;;;18.95;;
72891;SDS011;61032;50.782;6.818;2023-03-03T05:58:01;42.90;;;19.27;;
72891;SDS011;61032;50.782;6.818;2023-03-03T05:59:01;41.58;;;17.85;;
72891;SDS011;61032;50.782;6.818;2023-03-03T06:00:03;38.13;;;16.73;;
72891;SDS011;61032;50.782;6.818;2023-03-03T06:01:04;44.58;;;19.80;;
72891;SDS011;61032;50.782;6.818;2023-03-03T06:02:05;44.28;;;19.38;;
72891;SDS011;61032;50.782;6.818;2023-03-03T06:03:05;44.70;;;19.48;;
72891;SDS011;61032;50.782;6.818;2023-03-03T06:04:06;52.08;;;20.50;;
72891;SDS011;61032;50.782;6.818;2023-03-03T06:05:07;47.22;;;20.92;;
72891;SDS011;61032;50.782;6.818;2023-03-03T06:06:08;46.58;;;19.77;;
72891;SDS011;61032;50.782;6.818;2023-03-03T06:07:09;48.78;;;20.23;;
72891;SDS011;61032;50.782;6.818;2023-03-03T06:08:09;43.50;;;19.52;;
72891;SDS011;61032;50.782;6.818;2023-03-03T06:09:09;46.03;;;20.10;;
72891;SDS011;61032;50.782;6.818;2023-03-03T06:10:10;53.25;;;21.83;;
72891;SDS011;61032;50.782;6.818;2023-03-03T06:11:10;50.20;;;21.75;;
72891;SDS011;61032;50.782;6.818;2023-03-03T06:12:11;50.63;;;21.33;;
72891;SDS011;61032;50.782;6.818;2023-03-03T06:13:12;40.97;;;19.25;;